Guymon Municipal Airport
KGUY : now visible

Airfield :











YOU CAN JOIN US ON...

 
LOGIN :

Register | Disclaimer

   EN    FR    IT 

 









Legend :    VFR   Marginal VFR   IFR   Intensive IFR   Very Intensive IFR
Visi :
Ceiling :
>= 8 km
>= 3000ft
5 to 8 km
1000 to 3000 ft
1500m to 5 km
500 to 1000 ft
800 to 1500m
200 to 500 ft
< 800m
< 200 ft
Symbols :   Thunderstorms  Fog  Heavy snow  Heavy precipitations  Wind > 20 kt






- Airport Elevation : 3123 ft


KGUY - Guymon Municipal

CURRENT METAR :
  • 261453Z AUTO 30003KT 10SM CLR 02/M04 A3007 RMK AO2 SLP188 T00221044 53011

EXPIRED METARs :
  • 261353Z AUTO 00000KT 10SM CLR M01/M06 A3006 RMK AO2 SLP183 T10061056
  • 261253Z AUTO 31007KT 10SM CLR 01/M05 A3004 RMK AO2 SLP171 T00061050

TAF KGUY
Valid from the 26 at 12:00 until the 27 at 12:00 UTC


261120Z 2612/2712 30005KT P6SM FEW250
FM270600 20006KT P6SM FEW250



MET'MAP, your aeronautical weather chart ! - Copyright ORBIFLY December 2007 - Disclaimer

ORBIFLY MET'MAP TEAM :

Programming & Development : Alexandra Zaïnal
Concept & original design : Baudouin d'Aumeries
Assistance for programming : Marc-Olivier Méhu
Technical & hardware support : Manuel Goepfert

Contact : metmap@orbifly.com




SOURCES & CREDITS :

   NOAA       Earth
Advisory